Time;durP1;ratioP1;P1;durP2;ratioP2;P2;SDS_P1;SDS_P2;PMS_P1;PMS_P2;Temp;Humidity;BMP_temperature;BMP_pressure;BME280_temperature;BME280_humidity;BME280_pressure;Samples;Min_cycle;Max_cycle;Signal;HPM_P1;HPM_P2
2022/07/10 00:00:27;;;;;;;9.30;7.47;;;19.80;99.90;;;;;;5094490;28;20521;-69
2022/07/10 00:02:54;;;;;;;7.40;6.70;;;19.70;99.90;;;;;;5094517;28;20488;-68
2022/07/10 00:05:21;;;;;;;8.53;7.83;;;19.80;99.90;;;;;;5094334;28;20490;-68
2022/07/10 00:07:49;;;;;;;8.00;7.40;;;19.70;99.90;;;;;;5094396;28;20981;-68
2022/07/10 00:10:16;;;;;;;7.50;6.90;;;19.70;99.90;;;;;;5094295;28;20919;-68
2022/07/10 00:12:43;;;;;;;8.17;7.47;;;19.70;99.90;;;;;;5094362;28;20497;-68
2022/07/10 00:15:13;;;;;;;7.80;7.10;;;19.60;99.90;;;;;;5094303;28;20608;-68
2022/07/10 00:17:40;;;;;;;8.40;7.70;;;19.50;99.90;;;;;;5094263;28;20481;-68
2022/07/10 00:20:08;;;;;;;7.90;7.10;;;19.60;99.90;;;;;;5094120;28;20445;-68
2022/07/10 00:22:35;;;;;;;7.20;6.60;;;19.50;99.90;;;;;;5093902;28;20460;-68
2022/07/10 00:25:03;;;;;;;7.17;6.57;;;19.50;99.90;;;;;;5093722;28;20448;-68
2022/07/10 00:27:29;;;;;;;6.73;6.23;;;19.50;99.90;;;;;;5094142;28;20473;-68
2022/07/10 00:29:57;;;;;;;7.60;7.00;;;19.50;99.90;;;;;;5094099;28;20472;-68
2022/07/10 00:32:25;;;;;;;7.10;6.50;;;19.50;99.90;;;;;;5093746;28;20466;-68
2022/07/10 00:34:52;;;;;;;7.30;6.70;;;19.50;99.90;;;;;;5093683;28;20496;-69
2022/07/10 00:37:21;;;;;;;7.40;6.80;;;19.50;99.90;;;;;;5093876;28;20513;-68
2022/07/10 00:39:48;;;;;;;6.87;6.27;;;19.50;99.90;;;;;;5093707;28;20442;-68
2022/07/10 00:42:16;;;;;;;7.60;7.00;;;19.60;99.90;;;;;;5093826;28;20519;-68
2022/07/10 00:44:44;;;;;;;7.13;6.63;;;19.60;99.90;;;;;;5093276;28;20477;-68
2022/07/10 00:47:13;;;;;;;6.70;6.20;;;19.70;99.90;;;;;;5093819;28;20447;-69
2022/07/10 00:49:42;;;;;;;6.73;6.13;;;19.60;99.90;;;;;;5093714;28;20449;-69
2022/07/10 00:52:11;;;;;;;6.70;6.20;;;19.50;99.90;;;;;;5093812;28;20895;-68
2022/07/10 00:54:40;;;;;;;7.13;6.57;;;19.60;99.90;;;;;;5093286;28;20489;-68
2022/07/10 00:57:09;;;;;;;6.70;6.20;;;19.60;99.90;;;;;;5093673;28;20512;-68
2022/07/10 00:59:36;;;;;;;7.43;6.90;;;19.60;99.90;;;;;;5093582;28;20524;-68
2022/07/10 01:02:04;;;;;;;6.80;6.30;;;19.60;99.90;;;;;;5093532;28;20524;-69
2022/07/10 01:04:31;;;;;;;7.30;6.70;;;19.50;99.90;;;;;;5093276;28;20942;-68
2022/07/10 01:07:00;;;;;;;6.83;6.20;;;19.50;99.90;;;;;;5093719;28;20448;-68
2022/07/10 01:09:27;;;;;;;7.10;6.50;;;19.50;99.90;;;;;;5093390;28;20443;-68
2022/07/10 01:11:55;;;;;;;7.00;6.43;;;19.50;99.90;;;;;;5093402;28;20472;-68
2022/07/10 01:14:23;;;;;;;7.00;6.40;;;19.50;99.90;;;;;;5093174;28;20537;-68
2022/07/10 01:16:50;;;;;;;6.57;6.00;;;19.40;99.90;;;;;;5093496;28;20447;-68
2022/07/10 01:19:17;;;;;;;7.20;6.57;;;19.40;99.90;;;;;;5093604;28;20478;-68
2022/07/10 01:21:46;;;;;;;7.70;7.10;;;19.40;99.90;;;;;;5093090;28;20567;-69
2022/07/10 01:24:12;;;;;;;7.03;6.53;;;19.40;99.90;;;;;;5093302;28;20449;-68
2022/07/10 01:26:42;;;;;;;7.10;6.50;;;19.40;99.90;;;;;;5093488;28;20436;-68
2022/07/10 01:29:11;;;;;;;7.50;6.80;;;19.30;99.90;;;;;;5093487;28;20520;-68
2022/07/10 01:31:38;;;;;;;8.00;7.40;;;19.30;99.90;;;;;;5093197;28;20952;-68
2022/07/10 01:34:08;;;;;;;7.95;7.35;;;19.20;99.90;;;;;;5093171;28;20485;-69
2022/07/10 01:36:35;;;;;;;7.30;6.70;;;19.10;99.90;;;;;;5093365;28;20205;-69
2022/07/10 01:39:04;;;;;;;7.90;7.20;;;19.00;99.90;;;;;;5093242;28;20852;-68
2022/07/10 01:41:31;;;;;;;7.93;7.03;;;19.10;99.90;;;;;;5093062;28;20519;-68
2022/07/10 01:43:57;;;;;;;7.60;7.00;;;19.10;99.90;;;;;;5092846;28;20478;-69
2022/07/10 01:46:25;;;;;;;7.63;7.03;;;19.10;99.90;;;;;;5093277;28;20491;-68
2022/07/10 01:48:52;;;;;;;7.70;7.10;;;19.10;99.90;;;;;;5093205;28;20463;-68
2022/07/10 01:51:19;;;;;;;7.80;7.20;;;19.10;99.90;;;;;;5093425;28;20583;-68
2022/07/10 01:53:46;;;;;;;8.43;7.83;;;19.10;99.90;;;;;;5092713;28;20495;-69
2022/07/10 01:56:15;;;;;;;8.23;7.53;;;19.00;99.90;;;;;;5093221;28;20474;-68
2022/07/10 01:58:42;;;;;;;8.48;7.68;;;18.90;99.90;;;;;;5096407;28;20524;-69
2022/07/10 02:01:10;;;;;;;8.80;8.10;;;18.80;99.90;;;;;;5096731;28;20229;-69
2022/07/10 02:06:21;;;;;;;8.57;7.87;;;18.70;99.90;;;;;;5096854;28;20707;-68
2022/07/10 02:08:48;;;;;;;8.60;7.82;;;18.80;99.90;;;;;;5096713;28;20472;-68
2022/07/10 02:11:16;;;;;;;8.73;8.02;;;18.70;99.90;;;;;;5096713;28;20249;-68
2022/07/10 02:13:43;;;;;;;8.73;8.02;;;18.80;99.90;;;;;;5096302;28;20285;-69
2022/07/10 02:16:10;;;;;;;9.10;8.30;;;18.80;99.90;;;;;;5096634;28;20209;-68
2022/07/10 02:18:37;;;;;;;9.50;8.68;;;18.90;99.90;;;;;;5096289;28;20215;-68
2022/07/10 02:21:04;;;;;;;10.48;8.70;;;18.70;99.90;;;;;;5096336;28;20275;-68
2022/07/10 02:23:31;;;;;;;9.70;8.80;;;18.50;99.90;;;;;;5096202;28;20707;-68
2022/07/10 02:25:58;;;;;;;8.50;7.80;;;18.40;99.90;;;;;;5096055;28;20973;-68
2022/07/10 02:28:26;;;;;;;9.57;8.55;;;18.40;99.90;;;;;;5096103;28;20316;-68
2022/07/10 02:30:53;;;;;;;9.80;8.90;;;18.30;99.90;;;;;;5096288;28;20245;-68
2022/07/10 02:33:20;;;;;;;14.98;12.25;;;18.30;99.90;;;;;;5096379;28;20260;-68
2022/07/10 02:35:47;;;;;;;13.15;11.90;;;18.30;99.90;;;;;;5095823;28;20672;-69
2022/07/10 02:38:14;;;;;;;14.05;12.75;;;18.30;99.90;;;;;;5095963;28;20244;-68
2022/07/10 02:40:42;;;;;;;15.35;13.90;;;18.20;99.90;;;;;;5096091;28;20242;-68
2022/07/10 02:43:09;;;;;;;17.00;15.50;;;18.20;99.90;;;;;;5096107;28;20648;-68
2022/07/10 02:45:37;;;;;;;14.57;13.18;;;18.20;99.90;;;;;;5095794;28;20238;-68
2022/07/10 02:48:04;;;;;;;14.98;13.48;;;18.30;99.90;;;;;;5096030;28;20257;-68
2022/07/10 02:50:31;;;;;;;14.60;13.20;;;18.30;99.90;;;;;;5095901;28;20237;-68
2022/07/10 02:52:58;;;;;;;15.52;14.00;;;18.30;99.90;;;;;;5095769;28;20626;-69
2022/07/10 02:55:25;;;;;;;14.27;12.97;;;18.20;99.90;;;;;;5095588;28;20637;-68
2022/07/10 02:57:52;;;;;;;16.30;14.70;;;18.20;99.90;;;;;;5095819;28;20497;-68
2022/07/10 03:00:18;;;;;;;16.30;14.75;;;18.20;99.90;;;;;;5095833;28;20305;-68
2022/07/10 03:02:47;;;;;;;14.20;12.80;;;18.20;99.90;;;;;;5095718;28;20622;-68
2022/07/10 03:05:13;;;;;;;15.27;13.77;;;18.10;99.90;;;;;;5095209;28;20241;-69
2022/07/10 03:07:40;;;;;;;16.15;14.52;;;18.20;99.90;;;;;;5095446;28;20759;-69
2022/07/10 03:10:08;;;;;;;16.48;14.98;;;18.10;99.90;;;;;;5095342;28;20292;-68
2022/07/10 03:12:35;;;;;;;15.73;14.23;;;18.10;99.90;;;;;;5095252;28;20305;-68
2022/07/10 03:15:02;;;;;;;15.23;13.82;;;18.10;99.90;;;;;;5095191;28;20293;-68
2022/07/10 03:17:29;;;;;;;14.40;13.00;;;18.00;99.90;;;;;;5095399;28;20233;-69
2022/07/10 03:19:57;;;;;;;14.15;12.82;;;17.90;99.90;;;;;;5095342;28;20292;-68
2022/07/10 03:22:24;;;;;;;14.60;13.02;;;18.00;99.90;;;;;;5095303;28;20313;-68
2022/07/10 03:24:51;;;;;;;14.00;12.60;;;18.10;99.90;;;;;;5095195;28;20575;-69
2022/07/10 03:27:17;;;;;;;13.48;12.07;;;18.20;99.90;;;;;;5095274;28;20292;-68
2022/07/10 03:29:46;;;;;;;13.88;12.00;;;18.20;99.90;;;;;;5095174;28;20293;-68
2022/07/10 03:32:13;;;;;;;13.75;12.40;;;18.10;99.90;;;;;;5095049;28;20225;-68
2022/07/10 03:34:39;;;;;;;13.73;12.52;;;18.00;99.90;;;;;;5094982;28;20293;-68
2022/07/10 03:37:08;;;;;;;15.27;13.70;;;17.90;99.90;;;;;;5094971;28;20637;-68
2022/07/10 03:39:35;;;;;;;12.55;11.35;;;17.70;99.90;;;;;;5095047;28;20230;-68
2022/07/10 03:42:02;;;;;;;11.90;10.70;;;17.70;99.90;;;;;;5094704;28;20313;-68
2022/07/10 03:44:28;;;;;;;13.15;11.95;;;17.70;99.90;;;;;;5094830;28;20244;-68
2022/07/10 03:46:55;;;;;;;15.40;13.43;;;17.70;99.90;;;;;;5094806;28;20288;-68
2022/07/10 03:49:22;;;;;;;15.88;14.18;;;17.70;99.90;;;;;;5094579;28;20292;-68
2022/07/10 03:51:49;;;;;;;15.73;14.15;;;17.50;99.90;;;;;;5094870;28;20233;-68
2022/07/10 03:54:17;;;;;;;18.45;16.55;;;17.40;99.90;;;;;;5094362;28;20632;-69
2022/07/10 03:59:28;;;;;;;15.38;13.88;;;17.60;99.90;;;;;;5094712;28;20185;-68
2022/07/10 04:01:55;;;;;;;13.85;12.52;;;17.60;99.90;;;;;;5094193;28;20317;-68
2022/07/10 04:04:22;;;;;;;13.93;12.52;;;17.60;99.90;;;;;;5094296;28;20296;-68
2022/07/10 04:06:49;;;;;;;13.48;12.27;;;17.70;99.90;;;;;;5094538;28;20293;-68
2022/07/10 04:09:17;;;;;;;15.07;13.57;;;17.70;99.90;;;;;;5094471;28;20202;-68
2022/07/10 04:11:44;;;;;;;13.85;12.55;;;17.70;99.90;;;;;;5094322;28;20305;-68
2022/07/10 04:14:11;;;;;;;13.32;12.07;;;17.80;99.90;;;;;;5094298;28;20206;-68
2022/07/10 04:16:38;;;;;;;14.43;12.85;;;17.70;99.90;;;;;;5094405;28;20205;-68
2022/07/10 04:19:05;;;;;;;13.52;12.23;;;17.60;99.90;;;;;;5094173;28;20686;-68
2022/07/10 04:21:31;;;;;;;14.95;13.45;;;17.70;99.90;;;;;;5093636;28;20232;-68
2022/07/10 04:23:58;;;;;;;13.10;11.88;;;17.60;99.90;;;;;;5094154;28;20205;-68
2022/07/10 04:26:27;;;;;;;13.93;12.55;;;17.70;99.90;;;;;;5094146;28;20617;-68
2022/07/10 04:28:53;;;;;;;13.95;12.55;;;17.60;99.90;;;;;;5094164;28;20233;-68
2022/07/10 04:31:21;;;;;;;14.45;13.05;;;17.60;99.90;;;;;;5093991;28;20309;-69
2022/07/10 04:33:48;;;;;;;14.65;12.52;;;17.50;99.90;;;;;;5093714;28;20206;-68
2022/07/10 04:36:14;;;;;;;16.02;14.38;;;17.50;99.90;;;;;;5093956;28;20251;-69
2022/07/10 04:38:41;;;;;;;13.13;11.93;;;17.50;99.90;;;;;;5093931;28;20294;-68
2022/07/10 04:41:08;;;;;;;13.88;11.55;;;17.50;99.90;;;;;;5093854;28;20647;-68
2022/07/10 04:43:36;;;;;;;11.90;10.75;;;17.40;99.90;;;;;;5093800;28;20228;-68
2022/07/10 04:46:03;;;;;;;11.93;10.73;;;17.30;99.90;;;;;;5093669;28;20301;-68
2022/07/10 04:48:30;;;;;;;11.45;10.45;;;17.20;99.90;;;;;;5093871;28;20202;-68
2022/07/10 04:50:57;;;;;;;11.88;10.82;;;17.20;99.90;;;;;;5093711;28;20309;-68
2022/07/10 04:53:24;;;;;;;12.95;11.77;;;17.30;99.90;;;;;;5093625;28;20209;-68
2022/07/10 04:55:51;;;;;;;10.50;9.60;;;17.20;99.90;;;;;;5093384;28;20296;-68
2022/07/10 04:58:18;;;;;;;12.10;10.80;;;17.10;99.90;;;;;;5093714;28;20202;-68
2022/07/10 05:00:46;;;;;;;11.75;10.55;;;17.20;99.90;;;;;;5093626;28;20198;-68
2022/07/10 05:03:15;;;;;;;11.88;10.77;;;17.20;99.90;;;;;;5093618;28;20248;-68
2022/07/10 05:05:43;;;;;;;12.57;11.38;;;17.30;99.90;;;;;;5093424;28;20247;-68
2022/07/10 05:08:10;;;;;;;11.27;10.10;;;17.10;99.90;;;;;;5093580;28;20619;-68
2022/07/10 05:10:37;;;;;;;11.48;10.27;;;17.10;99.90;;;;;;5093620;28;20204;-69
2022/07/10 05:13:03;;;;;;;12.10;10.90;;;17.20;99.90;;;;;;5093609;28;20554;-68
2022/07/10 05:15:30;;;;;;;13.07;10.75;;;17.00;99.90;;;;;;5093372;28;20288;-68
2022/07/10 05:17:59;;;;;;;11.70;10.70;;;16.80;99.90;;;;;;5093390;28;20304;-68
2022/07/10 05:20:25;;;;;;;10.77;9.70;;;16.70;99.90;;;;;;5093362;28;20731;-68
2022/07/10 05:22:52;;;;;;;10.68;9.60;;;16.50;99.90;;;;;;5093323;28;20226;-68
2022/07/10 05:25:19;;;;;;;11.15;9.90;;;16.60;99.90;;;;;;5093264;28;20285;-68
2022/07/10 05:27:46;;;;;;;10.30;9.40;;;16.90;99.90;;;;;;5093361;28;20253;-68
2022/07/10 05:30:13;;;;;;;9.95;9.05;;;16.90;99.90;;;;;;5093060;28;20731;-68
2022/07/10 05:32:44;;;;;;;9.70;8.80;;;16.80;99.90;;;;;;5096833;28;20707;-68
2022/07/10 05:35:12;;;;;;;8.80;8.00;;;16.70;99.90;;;;;;5097153;28;20205;-69
2022/07/10 05:37:39;;;;;;;8.88;8.00;;;16.80;99.90;;;;;;5097332;28;20292;-68
2022/07/10 05:40:07;;;;;;;8.18;6.50;;;16.70;99.90;;;;;;5097126;28;20289;-68
2022/07/10 05:42:35;;;;;;;7.72;7.03;;;16.80;99.90;;;;;;5097114;28;20311;-68
2022/07/10 05:45:02;;;;;;;7.15;6.45;;;16.80;99.90;;;;;;5096994;28;20205;-68
2022/07/10 05:47:28;;;;;;;7.72;7.03;;;16.80;99.90;;;;;;5097077;28;20215;-69
2022/07/10 05:49:55;;;;;;;7.03;6.43;;;16.80;99.90;;;;;;5097031;28;20311;-68
2022/07/10 05:52:23;;;;;;;7.22;6.53;;;16.80;99.90;;;;;;5097033;28;20614;-68
2022/07/10 05:54:50;;;;;;;7.30;6.60;;;16.80;99.90;;;;;;5096682;28;20216;-68
2022/07/10 05:57:17;;;;;;;6.63;6.10;;;16.80;99.90;;;;;;5096941;28;20567;-68
2022/07/10 05:59:44;;;;;;;6.43;5.85;;;16.80;99.90;;;;;;5096895;28;20298;-68
2022/07/10 06:02:11;;;;;;;6.35;5.85;;;16.90;99.90;;;;;;5096661;28;20321;-68
2022/07/10 06:04:38;;;;;;;6.40;5.90;;;17.10;99.90;;;;;;5096613;28;20233;-68
2022/07/10 06:07:05;;;;;;;5.88;5.30;;;17.30;99.90;;;;;;5096761;28;20244;-68
2022/07/10 06:09:33;;;;;;;6.00;5.30;;;17.40;99.90;;;;;;5096655;28;20206;-68
2022/07/10 06:12:00;;;;;;;5.30;4.90;;;17.50;99.90;;;;;;5096557;28;20557;-68
2022/07/10 06:14:27;;;;;;;5.93;5.32;;;17.50;99.90;;;;;;5096218;28;20212;-68
2022/07/10 06:16:54;;;;;;;5.28;4.85;;;17.50;99.90;;;;;;5096439;28;20289;-69
2022/07/10 06:19:21;;;;;;;5.88;4.57;;;17.50;99.90;;;;;;5096494;28;20289;-68
2022/07/10 06:21:48;;;;;;;5.40;4.50;;;17.40;99.90;;;;;;5096454;28;20312;-68
2022/07/10 06:24:14;;;;;;;5.10;4.70;;;17.20;99.90;;;;;;5095966;28;20234;-68
2022/07/10 06:26:43;;;;;;;5.82;4.60;;;17.20;99.90;;;;;;5096368;28;20293;-68
2022/07/10 06:29:09;;;;;;;5.05;4.55;;;17.20;99.90;;;;;;5096284;28;20206;-68
2022/07/10 06:31:36;;;;;;;5.55;4.95;;;17.30;99.90;;;;;;5095940;28;20317;-68
2022/07/10 06:34:03;;;;;;;5.80;4.82;;;17.30;99.90;;;;;;5096011;28;20626;-68
2022/07/10 06:36:30;;;;;;;5.57;5.00;;;17.40;99.90;;;;;;5096209;28;20297;-68
2022/07/10 06:38:57;;;;;;;5.50;5.00;;;17.40;99.90;;;;;;5096099;28;20296;-68
2022/07/10 06:41:23;;;;;;;6.38;5.10;;;17.60;99.90;;;;;;5095926;28;20313;-68
2022/07/10 06:43:52;;;;;;;5.15;4.75;;;17.70;99.90;;;;;;5094916;28;20308;-68
2022/07/10 06:46:19;;;;;;;5.80;5.20;;;17.80;99.90;;;;;;5096027;28;20226;-68
2022/07/10 06:48:44;;;;;;;5.07;4.60;;;17.90;99.90;;;;;;5096128;28;20289;-68
2022/07/10 06:51:11;;;;;;;5.03;4.63;;;18.00;99.90;;;;;;5095865;28;20650;-68
2022/07/10 06:53:38;;;;;;;5.00;4.50;;;18.00;99.90;;;;;;5095694;28;20931;-68
2022/07/10 06:56:06;;;;;;;6.07;5.50;;;18.10;99.90;;;;;;5095658;28;20233;-68
2022/07/10 06:58:33;;;;;;;4.20;3.85;;;18.00;99.90;;;;;;5095656;28;20202;-68
2022/07/10 07:01:01;;;;;;;4.63;4.22;;;18.00;99.90;;;;;;5095408;28;20718;-68
2022/07/10 07:03:28;;;;;;;4.70;4.00;;;17.90;99.90;;;;;;5095376;28;20308;-68
2022/07/10 07:05:55;;;;;;;4.80;4.40;;;17.80;99.90;;;;;;5095366;28;20301;-68
2022/07/10 07:08:22;;;;;;;4.55;4.15;;;17.50;99.90;;;;;;5095636;28;20209;-68
2022/07/10 07:10:48;;;;;;;5.20;4.80;;;17.40;99.90;;;;;;5095441;28;20601;-67
2022/07/10 07:13:15;;;;;;;4.22;3.92;;;17.60;99.90;;;;;;5095533;28;20638;-68
2022/07/10 07:15:50;;;;;;;4.82;4.53;;;17.70;99.90;;;;;;5095292;28;20294;-68
2022/07/10 07:18:18;;;;;;;4.65;4.25;;;17.50;99.90;;;;;;5095670;28;20271;-68
2022/07/10 07:23:29;;;;;;;4.10;3.80;;;17.60;99.90;;;;;;5094983;28;20213;-68
2022/07/10 07:25:56;;;;;;;3.90;3.50;;;17.60;99.90;;;;;;5094804;28;20731;-68
2022/07/10 07:28:23;;;;;;;3.92;3.63;;;17.40;99.90;;;;;;5094948;28;20297;-68
2022/07/10 07:30:51;;;;;;;4.50;4.10;;;17.30;99.90;;;;;;5095039;28;20217;-68
2022/07/10 07:33:19;;;;;;;3.70;3.40;;;17.50;99.90;;;;;;5095134;28;20247;-68
2022/07/10 07:35:46;;;;;;;3.33;3.05;;;17.60;99.90;;;;;;5095129;28;20652;-68
2022/07/10 07:38:13;;;;;;;4.20;3.78;;;17.60;99.90;;;;;;5094970;28;20742;-68
2022/07/10 07:40:40;;;;;;;3.42;3.13;;;17.60;99.90;;;;;;5094898;28;20729;-68
2022/07/10 07:43:07;;;;;;;3.80;3.35;;;17.40;99.90;;;;;;5094854;28;20222;-68
2022/07/10 07:45:34;;;;;;;4.28;3.85;;;17.50;99.90;;;;;;5094686;28;20624;-68
2022/07/10 07:48:01;;;;;;;4.35;3.95;;;17.50;99.90;;;;;;5094802;28;20202;-68
2022/07/10 07:50:32;;;;;;;4.07;3.78;;;17.20;99.90;;;;;;5094648;28;20267;-68
2022/07/10 07:52:59;;;;;;;4.07;3.78;;;17.30;99.90;;;;;;5094618;28;20310;-68
2022/07/10 07:55:26;;;;;;;4.40;4.10;;;17.40;99.90;;;;;;5093754;28;20292;-68
2022/07/10 07:57:54;;;;;;;4.47;3.90;;;17.30;99.90;;;;;;5094625;28;20206;-68
2022/07/10 08:00:23;;;;;;;5.22;4.30;;;17.20;99.90;;;;;;5094623;28;20619;-68
2022/07/10 08:02:50;;;;;;;4.20;3.80;;;17.10;99.90;;;;;;5094522;28;20222;-68
2022/07/10 08:05:18;;;;;;;4.28;3.88;;;17.20;99.90;;;;;;5094094;28;20213;-68
2022/07/10 08:07:47;;;;;;;3.97;3.35;;;17.30;99.90;;;;;;5094474;28;20610;-68
2022/07/10 08:10:16;;;;;;;3.90;3.58;;;17.30;99.90;;;;;;5094404;28;20289;-68
2022/07/10 08:12:45;;;;;;;4.18;3.78;;;17.30;99.90;;;;;;5094391;28;20234;-68
2022/07/10 08:15:13;;;;;;;4.05;3.70;;;17.30;99.90;;;;;;5094049;28;20198;-68
2022/07/10 08:17:40;;;;;;;4.55;3.60;;;17.60;99.90;;;;;;5094257;28;20206;-68
2022/07/10 08:20:11;;;;;;;4.13;3.83;;;18.00;99.90;;;;;;5094307;28;20288;-68
2022/07/10 08:22:37;;;;;;;3.83;3.45;;;18.60;99.90;;;;;;5094196;28;20226;-68
2022/07/10 08:25:07;;;;;;;5.85;3.58;;;18.80;99.90;;;;;;5094007;28;20198;-68
2022/07/10 08:27:34;;;;;;;3.63;3.43;;;18.80;99.90;;;;;;5094038;28;20727;-68
2022/07/10 08:30:01;;;;;;;3.72;3.25;;;18.70;99.90;;;;;;5094011;28;20997;-68
2022/07/10 08:32:28;;;;;;;3.63;3.33;;;18.80;99.90;;;;;;5094098;28;20317;-69
2022/07/10 08:34:55;;;;;;;5.03;4.73;;;19.10;99.90;;;;;;5093625;28;20533;-68
2022/07/10 08:37:22;;;;;;;4.80;4.40;;;19.50;99.90;;;;;;5094008;28;20537;-68
2022/07/10 08:39:49;;;;;;;3.57;3.17;;;19.70;99.90;;;;;;5093825;28;20923;-68
2022/07/10 08:42:18;;;;;;;3.63;3.00;;;19.60;98.70;;;;;;5093644;28;21028;-68
2022/07/10 08:44:45;;;;;;;3.50;3.30;;;20.10;98.40;;;;;;5093633;28;20566;-69
2022/07/10 08:47:12;;;;;;;3.50;3.20;;;20.40;97.70;;;;;;5093921;28;20526;-68
2022/07/10 08:49:47;;;;;;;3.60;3.30;;;20.30;97.20;;;;;;5093676;28;20533;-68
2022/07/10 08:52:23;;;;;;;3.23;3.00;;;20.30;96.10;;;;;;5093634;28;20832;-68
2022/07/10 08:54:50;;;;;;;3.53;3.23;;;20.20;96.20;;;;;;5093384;28;20542;-69
2022/07/10 08:57:19;;;;;;;3.30;3.00;;;20.50;97.00;;;;;;5094075;28;20839;-70
2022/07/10 08:59:46;;;;;;;3.20;3.00;;;21.10;95.50;;;;;;5093738;28;20443;-68
2022/07/10 09:02:13;;;;;;;3.10;2.90;;;21.40;93.60;;;;;;5093753;28;20558;-69
2022/07/10 09:04:40;;;;;;;3.27;2.97;;;21.60;93.30;;;;;;5093351;28;20566;-68
2022/07/10 09:07:07;;;;;;;3.47;3.20;;;21.30;91.80;;;;;;5093458;28;20538;-68
2022/07/10 09:09:52;;;;;;;2.83;2.63;;;21.20;92.80;;;;;;5093474;28;20934;-68
2022/07/10 09:12:21;;;;;;;3.00;2.80;;;21.80;91.90;;;;;;5093624;28;20909;-68
2022/07/10 09:14:47;;;;;;;3.30;3.00;;;21.20;92.00;;;;;;5093245;28;20530;-69
2022/07/10 09:17:14;;;;;;;5.13;3.60;;;20.80;93.10;;;;;;5093521;28;20478;-68
2022/07/10 09:19:42;;;;;;;3.60;2.80;;;20.60;93.30;;;;;;5093529;28;20580;-68
2022/07/10 09:22:11;;;;;;;3.30;3.00;;;20.00;93.80;;;;;;5093332;28;20556;-69
2022/07/10 09:24:39;;;;;;;3.30;3.00;;;20.00;94.00;;;;;;5092927;28;20478;-68
2022/07/10 09:27:06;;;;;;;3.30;3.00;;;20.10;93.80;;;;;;5093225;28;20932;-69
2022/07/10 09:29:47;;;;;;;3.00;2.80;;;19.90;93.70;;;;;;5093382;28;20436;-69
2022/07/10 09:32:15;;;;;;;3.20;2.70;;;19.50;94.10;;;;;;5093342;28;20471;-68
2022/07/10 09:34:44;;;;;;;3.10;2.90;;;20.60;93.00;;;;;;5093207;28;20443;-68
2022/07/10 09:37:22;;;;;;;3.47;2.60;;;22.20;89.80;;;;;;5093146;28;20483;-68
2022/07/10 09:39:57;;;;;;;2.77;2.57;;;23.20;86.50;;;;;;5093267;28;20541;-68
2022/07/10 09:42:32;;;;;;;4.50;4.07;;;22.90;82.60;;;;;;5092936;28;20551;-68
2022/07/10 09:45:20;;;;;;;3.20;2.80;;;21.80;83.60;;;;;;5092772;28;20822;-69
2022/07/10 09:47:55;;;;;;;3.03;2.80;;;21.10;85.60;;;;;;5093222;28;20442;-68
2022/07/10 09:50:25;;;;;;;2.43;2.23;;;20.50;88.00;;;;;;5093237;28;20440;-68
2022/07/10 09:52:54;;;;;;;3.13;2.83;;;20.30;88.90;;;;;;5092769;28;21028;-69
2022/07/10 09:55:22;;;;;;;2.50;2.30;;;20.70;88.70;;;;;;5092870;28;20539;-68
2022/07/10 09:57:56;;;;;;;2.33;2.23;;;21.50;87.50;;;;;;5093121;28;20456;-68
2022/07/10 10:00:28;;;;;;;2.60;2.40;;;23.20;81.30;;;;;;5093127;28;20446;-69
2022/07/10 10:03:00;;;;;;;2.70;2.50;;;24.60;76.60;;;;;;5092832;28;20554;-69
2022/07/10 10:05:38;;;;;;;2.63;2.43;;;25.00;72.30;;;;;;5092738;28;20992;-69
2022/07/10 10:08:12;;;;;;;2.40;2.30;;;23.90;72.50;;;;;;5092932;28;20529;-69
2022/07/10 10:10:43;;;;;;;3.00;2.80;;;23.10;75.60;;;;;;5092977;28;20811;-69
2022/07/10 10:13:12;;;;;;;3.00;2.80;;;22.30;76.00;;;;;;5092887;28;20973;-68
2022/07/10 10:15:43;;;;;;;2.87;2.67;;;22.10;78.70;;;;;;5092857;28;20519;-69
2022/07/10 10:18:11;;;;;;;3.27;2.97;;;22.30;77.40;;;;;;5093908;28;20551;-69
2022/07/10 10:20:37;;;;;;;3.17;2.77;;;22.10;80.70;;;;;;5096407;28;20446;-68
2022/07/10 10:23:07;;;;;;;2.93;2.63;;;21.60;80.80;;;;;;5096597;28;20498;-69
2022/07/10 10:25:35;;;;;;;3.40;3.10;;;21.30;80.60;;;;;;5096230;28;20484;-68
2022/07/10 10:28:03;;;;;;;3.07;2.87;;;20.80;81.20;;;;;;5096454;28;20443;-68
2022/07/10 10:30:31;;;;;;;2.90;2.70;;;20.90;82.60;;;;;;5096288;28;20864;-68
2022/07/10 10:33:00;;;;;;;3.07;2.63;;;20.80;81.80;;;;;;5096224;28;20547;-69
2022/07/10 10:35:47;;;;;;;3.00;2.70;;;21.20;79.00;;;;;;5096239;28;20432;-69
2022/07/10 10:38:15;;;;;;;2.93;2.73;;;21.30;82.50;;;;;;5096204;28;20497;-69
2022/07/10 10:40:42;;;;;;;2.50;2.27;;;21.40;82.00;;;;;;5095934;28;20534;-69
2022/07/10 10:43:19;;;;;;;6.10;5.50;;;21.70;82.00;;;;;;5095888;28;20487;-69
2022/07/10 10:45:46;;;;;;;2.90;2.70;;;22.30;81.00;;;;;;5095614;28;20453;-69
2022/07/10 10:48:17;;;;;;;3.40;3.10;;;22.50;78.60;;;;;;5096000;28;20528;-69
2022/07/10 10:50:47;;;;;;;2.80;2.60;;;22.60;77.00;;;;;;5096461;28;20530;-69
2022/07/10 10:53:15;;;;;;;3.30;2.77;;;22.40;76.40;;;;;;5095562;28;20460;-69
2022/07/10 10:55:57;;;;;;;3.50;2.70;;;22.20;77.40;;;;;;5095630;28;20542;-68
2022/07/10 10:58:26;;;;;;;2.53;2.33;;;21.60;76.90;;;;;;5095627;28;20945;-69
2022/07/10 11:00:53;;;;;;;2.70;2.50;;;21.40;75.90;;;;;;5095719;28;20532;-69
2022/07/10 11:03:23;;;;;;;3.10;2.80;;;21.20;78.30;;;;;;5095495;28;20984;-69
2022/07/10 11:05:51;;;;;;;3.80;2.63;;;20.90;79.10;;;;;;5095423;28;20447;-68
2022/07/10 11:08:38;;;;;;;2.67;2.47;;;20.90;79.80;;;;;;5095594;28;20782;-69
2022/07/10 11:11:40;;;;;;;3.53;3.10;;;21.10;80.70;;;;;;5095241;28;20962;-68
2022/07/10 11:14:09;;;;;;;2.80;2.60;;;21.10;82.10;;;;;;5032933;28;20433;-68
2022/07/10 11:16:36;;;;;;;2.70;2.50;;;21.00;80.40;;;;;;5033128;28;20463;-68
2022/07/10 11:19:04;;;;;;;2.90;2.70;;;20.80;80.70;;;;;;5062327;28;20974;-68
2022/07/10 11:21:46;;;;;;;3.33;3.13;;;20.70;80.70;;;;;;5095420;28;20505;-68
2022/07/10 11:24:31;;;;;;;3.07;2.67;;;20.40;79.20;;;;;;5095097;28;20482;-68
2022/07/10 11:27:16;;;;;;;2.80;2.50;;;20.40;81.20;;;;;;5095281;28;20450;-68
2022/07/10 11:29:47;;;;;;;2.70;2.50;;;20.40;78.90;;;;;;5095139;28;20442;-68
2022/07/10 11:32:17;;;;;;;3.20;2.80;;;20.30;81.30;;;;;;5094866;28;20467;-68
2022/07/10 11:34:45;;;;;;;2.50;2.30;;;20.30;81.00;;;;;;5094683;28;20450;-68
2022/07/10 11:37:16;;;;;;;2.70;2.50;;;20.40;81.30;;;;;;5094856;28;20439;-69
2022/07/10 11:39:43;;;;;;;2.20;2.10;;;20.70;80.50;;;;;;5094966;28;20811;-69
2022/07/10 11:42:10;;;;;;;2.13;2.03;;;20.80;79.80;;;;;;5094952;28;20551;-68
2022/07/10 11:44:37;;;;;;;3.30;2.17;;;21.00;77.00;;;;;;5094479;28;20515;-69
2022/07/10 11:47:05;;;;;;;2.03;1.90;;;21.30;77.20;;;;;;5094713;28;20977;-69
2022/07/10 11:49:32;;;;;;;2.27;2.00;;;21.70;75.50;;;;;;5094821;28;20444;-68
2022/07/10 11:52:04;;;;;;;2.20;2.10;;;22.00;73.30;;;;;;5094564;28;20551;-69
2022/07/10 11:54:31;;;;;;;2.00;1.90;;;21.80;72.60;;;;;;5094307;28;20505;-69
2022/07/10 11:57:06;;;;;;;2.50;2.30;;;21.60;74.90;;;;;;5094765;28;20532;-69
2022/07/10 11:59:33;;;;;;;2.53;2.33;;;21.70;76.60;;;;;;5094683;28;20450;-69
2022/07/10 12:02:00;;;;;;;1.97;1.87;;;21.90;75.30;;;;;;5094502;28;20555;-69
2022/07/10 12:04:31;;;;;;;2.63;1.87;;;22.00;73.70;;;;;;5094133;28;20480;-68
2022/07/10 12:06:58;;;;;;;1.90;1.80;;;22.10;71.30;;;;;;5094861;28;20454;-69
2022/07/10 12:09:26;;;;;;;4.10;1.90;;;22.20;72.80;;;;;;5094514;28;20458;-69
2022/07/10 12:12:01;;;;;;;1.90;1.80;;;22.20;71.00;;;;;;5094153;28;20510;-68
2022/07/10 12:14:28;;;;;;;2.60;1.77;;;21.70;71.50;;;;;;5094103;28;20488;-68
2022/07/10 12:16:56;;;;;;;2.87;2.50;;;21.10;73.10;;;;;;5094385;28;20500;-69
2022/07/10 12:19:27;;;;;;;1.90;1.80;;;21.10;74.40;;;;;;5094238;28;20534;-69
2022/07/10 12:21:54;;;;;;;2.03;1.83;;;21.30;73.40;;;;;;5094326;28;20559;-68
2022/07/10 12:24:21;;;;;;;2.27;2.00;;;20.90;70.90;;;;;;5093938;28;20590;-68
2022/07/10 12:26:51;;;;;;;2.00;1.90;;;20.80;72.30;;;;;;5094099;28;20477;-68
2022/07/10 12:29:23;;;;;;;1.90;1.60;;;20.50;73.50;;;;;;5094370;28;20447;-68
2022/07/10 12:31:52;;;;;;;2.50;1.57;;;20.30;73.90;;;;;;5093848;28;20963;-68
2022/07/10 12:34:21;;;;;;;2.00;1.80;;;20.20;75.50;;;;;;5093936;28;20462;-68
2022/07/10 12:36:49;;;;;;;1.80;1.70;;;20.40;74.10;;;;;;5094078;28;20466;-68
2022/07/10 12:39:17;;;;;;;1.63;1.53;;;20.70;74.90;;;;;;5093844;28;20963;-69
2022/07/10 12:42:03;;;;;;;2.00;1.80;;;21.00;72.80;;;;;;5093280;28;20562;-69
2022/07/10 12:44:41;;;;;;;2.27;2.00;;;20.90;72.10;;;;;;5093452;28;20471;-69
2022/07/10 12:47:12;;;;;;;1.60;1.50;;;21.00;71.00;;;;;;5093710;28;20447;-69
2022/07/10 12:49:55;;;;;;;1.80;1.70;;;21.10;69.60;;;;;;5093888;28;20438;-69
2022/07/10 12:52:26;;;;;;;2.60;1.73;;;21.50;71.30;;;;;;5092018;28;20472;-69
2022/07/10 12:55:14;;;;;;;1.50;1.40;;;21.80;67.50;;;;;;5093382;28;20448;-69
2022/07/10 12:57:50;;;;;;;3.37;1.60;;;22.00;67.90;;;;;;5093789;28;20953;-69